Summary for KC4WPS2

West Of Town, West Plains, MO 65775
Join the PWSweather.com Network
View data in metric units
Latest Conditions
Updated 4:32:01 AM CDT Wednesday, Oct 22, 2014
Data Currently Today's Max Today's Min Today's Average
Temperature 46.2°F7.9°C 50.0°F10.0°C 46.2°F7.9°C 48.0°F8.9°C
Dew Point 38.4°F3.6°C 41.6°F5.3°C 38.0°F3.3°C 40.0°F4.4°C
Winds Calm Calm Calm WSWCalm WSW CalmCalm CalmCalm
Wind Gusts -- -- -- --
Humidity 74% 76% 72% 74%
Pressure 29.23 in989.8 mb 29.23 in989.8 mb 29.19 in988.5 mb 29.20 in988.8 mb
Precipitation 0.00 in0.0 mm - - 0.00 in0.0 mm
Trends
 
Station Profile
West Of TownWest Plains, MO 65775

Lat: 36.746, Lon: -91.896
Elevation: 1068
Station Type: Lacrosse 2308

http://www.rogerg.net/weather

Detailed Summary for Wed, Oct 22, 2014
Hour (CDT) Temperature Dew Point Humidity Winds Wind Gusts Pressure Precip Precip Rate Daily Precip Total
04:32 AM 46.2°F7.9°C 38.4°F3.6°C 74% Calm Calm -- 29.23 in989.8 mb 0.00 in0.0 mm 0.00 in/hr0.0 mm/hr 0.00 in0.0 mm
04:30 AM 46.2°F7.9°C 38.4°F3.6°C 74% Calm Calm -- 29.23 in989.8 mb 0.00 in0.0 mm 0.00 in/hr0.0 mm/hr 0.00 in0.0 mm
04:28 AM 46.2°F7.9°C 38.0°F3.3°C 73% Calm Calm -- 29.23 in989.8 mb 0.00 in0.0 mm 0.00 in/hr0.0 mm/hr 0.00 in0.0 mm
04:26 AM 46.3°F7.9°C 38.1°F3.4°C 73% Calm Calm -- 29.23 in989.8 mb 0.00 in0.0 mm 0.00 in/hr0.0 mm/hr 0.00 in0.0 mm
04:24 AM 46.3°F7.9°C 38.1°F3.4°C 73% Calm Calm -- 29.23 in989.8 mb 0.00 in0.0 mm 0.00 in/hr0.0 mm/hr 0.00 in0.0 mm
04:22 AM 46.4°F8.0°C 38.6°F3.7°C 74% Calm Calm -- 29.23 in989.8 mb 0.00 in0.0 mm 0.00 in/hr0.0 mm/hr 0.00 in0.0 mm
04:20 AM 46.4°F8.0°C 38.6°F3.7°C 74% Calm Calm -- 29.22 in989.5 mb 0.00 in0.0 mm 0.00 in/hr0.0 mm/hr 0.00 in0.0 mm
04:18 AM 46.4°F8.0°C 38.6°F3.7°C 74% Calm Calm -- 29.22 in989.5 mb 0.00 in0.0 mm 0.00 in/hr0.0 mm/hr 0.00 in0.0 mm
04:16 AM 46.4°F8.0°C 38.6°F3.7°C 74% Calm Calm -- 29.22 in989.5 mb 0.00 in0.0 mm 0.00 in/hr0.0 mm/hr 0.00 in0.0 mm
04:14 AM 46.4°F8.0°C 38.6°F3.7°C 74% Calm Calm -- 29.22 in989.5 mb 0.00 in0.0 mm 0.00 in/hr0.0 mm/hr 0.00 in0.0 mm
04:12 AM 46.4°F8.0°C 38.9°F3.8°C 75% Calm Calm -- 29.23 in989.8 mb 0.00 in0.0 mm 0.00 in/hr0.0 mm/hr 0.00 in0.0 mm
04:10 AM 46.4°F8.0°C 38.6°F3.7°C 74% Calm Calm -- 29.22 in989.5 mb 0.00 in0.0 mm 0.00 in/hr0.0 mm/hr 0.00 in0.0 mm
04:08 AM 46.5°F8.1°C 38.7°F3.7°C 74% Calm Calm -- 29.22 in989.5 mb 0.00 in0.0 mm 0.00 in/hr0.0 mm/hr 0.00 in0.0 mm
04:06 AM 46.5°F8.1°C 38.7°F3.7°C 74% Calm Calm -- 29.22 in989.5 mb 0.00 in0.0 mm 0.00 in/hr0.0 mm/hr 0.00 in0.0 mm
04:04 AM 46.5°F8.1°C 38.7°F3.7°C 74% Calm Calm -- 29.22 in989.5 mb 0.00 in0.0 mm 0.00 in/hr0.0 mm/hr 0.00 in0.0 mm
04:02 AM 46.5°F8.1°C 38.3°F3.5°C 73% Calm Calm -- 29.22 in989.5 mb 0.00 in0.0 mm 0.00 in/hr0.0 mm/hr 0.00 in0.0 mm
04:00 AM 46.5°F8.1°C 38.7°F3.7°C 74% Calm Calm -- 29.22 in989.5 mb 0.00 in0.0 mm 0.00 in/hr0.0 mm/hr 0.00 in0.0 mm
03:58 AM 46.5°F8.1°C 38.7°F3.7°C 74% Calm Calm -- 29.22 in989.5 mb 0.00 in0.0 mm 0.00 in/hr0.0 mm/hr 0.00 in0.0 mm
03:56 AM 46.6°F8.1°C 38.8°F3.8°C 74% Calm Calm -- 29.22 in989.5 mb 0.00 in0.0 mm 0.00 in/hr0.0 mm/hr 0.00 in0.0 mm
03:54 AM 46.6°F8.1°C 38.8°F3.8°C 74% Calm Calm -- 29.22 in989.5 mb 0.00 in0.0 mm 0.00 in/hr0.0 mm/hr 0.00 in0.0 mm
03:52 AM 46.7°F8.2°C 38.9°F3.8°C 74% Calm Calm -- 29.22 in989.5 mb 0.00 in0.0 mm 0.00 in/hr0.0 mm/hr 0.00 in0.0 mm
03:50 AM 46.7°F8.2°C 38.9°F3.8°C 74% Calm Calm -- 29.22 in989.5 mb 0.00 in0.0 mm 0.00 in/hr0.0 mm/hr 0.00 in0.0 mm
03:48 AM 46.7°F8.2°C 38.9°F3.8°C 74% Calm Calm -- 29.22 in989.5 mb 0.00 in0.0 mm 0.00 in/hr0.0 mm/hr 0.00 in0.0 mm
03:46 AM 46.8°F8.2°C 39.0°F3.9°C 74% Calm Calm -- 29.22 in989.5 mb 0.00 in0.0 mm 0.00 in/hr0.0 mm/hr 0.00 in0.0 mm
03:44 AM 46.8°F8.2°C 39.0°F3.9°C 74% Calm Calm -- 29.22 in989.5 mb 0.00 in0.0 mm 0.00 in/hr0.0 mm/hr 0.00 in0.0 mm
03:42 AM 46.9°F8.3°C 38.7°F3.7°C 73% Calm Calm -- 29.22 in989.5 mb 0.00 in0.0 mm 0.00 in/hr0.0 mm/hr 0.00 in0.0 mm
03:40 AM 46.9°F8.3°C 39.1°F3.9°C 74% Calm Calm -- 29.22 in989.5 mb 0.00 in0.0 mm 0.00 in/hr0.0 mm/hr 0.00 in0.0 mm
03:38 AM 46.9°F8.3°C 39.1°F3.9°C 74% Calm Calm -- 29.22 in989.5 mb 0.00 in0.0 mm 0.00 in/hr0.0 mm/hr 0.00 in0.0 mm
03:36 AM 46.9°F8.3°C 39.1°F3.9°C 74% Calm Calm -- 29.22 in989.5 mb 0.00 in0.0 mm 0.00 in/hr0.0 mm/hr 0.00 in0.0 mm
03:34 AM 47.0°F8.3°C 39.2°F4.0°C 74% Calm Calm -- 29.22 in989.5 mb 0.00 in0.0 mm 0.00 in/hr0.0 mm/hr 0.00 in0.0 mm
03:32 AM 47.0°F8.3°C 39.2°F4.0°C 74% Calm Calm -- 29.22 in989.5 mb 0.00 in0.0 mm 0.00 in/hr0.0 mm/hr 0.00 in0.0 mm
03:30 AM 47.1°F8.4°C 38.9°F3.8°C 73% Calm Calm -- 29.22 in989.5 mb 0.00 in0.0 mm 0.00 in/hr0.0 mm/hr 0.00 in0.0 mm
03:28 AM 47.1°F8.4°C 39.3°F4.1°C 74% Calm Calm -- 29.21 in989.2 mb 0.00 in0.0 mm 0.00 in/hr0.0 mm/hr 0.00 in0.0 mm
03:26 AM 47.1°F8.4°C 39.3°F4.1°C 74% Calm Calm -- 29.21 in989.2 mb 0.00 in0.0 mm 0.00 in/hr0.0 mm/hr 0.00 in0.0 mm
03:24 AM 47.2°F8.4°C 39.4°F4.1°C 74% Calm Calm -- 29.22 in989.5 mb 0.00 in0.0 mm 0.00 in/hr0.0 mm/hr 0.00 in0.0 mm
03:22 AM 47.2°F8.4°C 39.4°F4.1°C 74% Calm Calm -- 29.21 in989.2 mb 0.00 in0.0 mm 0.00 in/hr0.0 mm/hr 0.00 in0.0 mm
03:20 AM 47.2°F8.4°C 39.4°F4.1°C 74% Calm Calm -- 29.22 in989.5 mb 0.00 in0.0 mm 0.00 in/hr0.0 mm/hr 0.00 in0.0 mm
03:18 AM 47.2°F8.4°C 39.7°F4.3°C 75% Calm Calm -- 29.22 in989.5 mb 0.00 in0.0 mm 0.00 in/hr0.0 mm/hr 0.00 in0.0 mm
03:16 AM 47.2°F8.4°C 39.7°F4.3°C 75% Calm Calm -- 29.22 in989.5 mb 0.00 in0.0 mm 0.00 in/hr0.0 mm/hr 0.00 in0.0 mm
03:14 AM 47.3°F8.5°C 39.8°F4.3°C 75% Calm Calm -- 29.21 in989.2 mb 0.00 in0.0 mm 0.00 in/hr0.0 mm/hr 0.00 in0.0 mm
03:12 AM 47.2°F8.4°C 39.7°F4.3°C 75% Calm Calm -- 29.21 in989.2 mb 0.00 in0.0 mm 0.00 in/hr0.0 mm/hr 0.00 in0.0 mm
03:10 AM 47.3°F8.5°C 39.8°F4.3°C 75% Calm Calm -- 29.21 in989.2 mb 0.00 in0.0 mm 0.00 in/hr0.0 mm/hr 0.00 in0.0 mm
03:08 AM 47.3°F8.5°C 39.5°F4.2°C 74% Calm Calm -- 29.21 in989.2 mb 0.00 in0.0 mm 0.00 in/hr0.0 mm/hr 0.00 in0.0 mm
03:06 AM 47.3°F8.5°C 39.5°F4.2°C 74% Calm Calm -- 29.21 in989.2 mb 0.00 in0.0 mm 0.00 in/hr0.0 mm/hr 0.00 in0.0 mm
03:04 AM 47.3°F8.5°C 39.5°F4.2°C 74% Calm Calm -- 29.21 in989.2 mb 0.00 in0.0 mm 0.00 in/hr0.0 mm/hr 0.00 in0.0 mm
03:02 AM 47.3°F8.5°C 39.5°F4.2°C 74% Calm Calm -- 29.21 in989.2 mb 0.00 in0.0 mm 0.00 in/hr0.0 mm/hr 0.00 in0.0 mm
03:00 AM 47.3°F8.5°C 39.5°F4.2°C 74% Calm Calm -- 29.20 in988.8 mb 0.00 in0.0 mm 0.00 in/hr0.0 mm/hr 0.00 in0.0 mm
02:58 AM 47.3°F8.5°C 39.1°F3.9°C 73% Calm Calm -- 29.21 in989.2 mb 0.00 in0.0 mm 0.00 in/hr0.0 mm/hr 0.00 in0.0 mm
02:56 AM 47.4°F8.6°C 39.5°F4.2°C 74% Calm Calm -- 29.20 in988.8 mb 0.00 in0.0 mm 0.00 in/hr0.0 mm/hr 0.00 in0.0 mm
02:54 AM 47.4°F8.6°C 39.5°F4.2°C 74% Calm Calm -- 29.20 in988.8 mb 0.00 in0.0 mm 0.00 in/hr0.0 mm/hr 0.00 in0.0 mm
02:52 AM 47.4°F8.6°C 39.5°F4.2°C 74% Calm Calm -- 29.20 in988.8 mb 0.00 in0.0 mm 0.00 in/hr0.0 mm/hr 0.00 in0.0 mm
02:50 AM 47.5°F8.6°C 39.6°F4.2°C 74% Calm Calm -- 29.20 in988.8 mb 0.00 in0.0 mm 0.00 in/hr0.0 mm/hr 0.00 in0.0 mm
02:48 AM 47.5°F8.6°C 39.6°F4.2°C 74% Calm Calm -- 29.21 in989.2 mb 0.00 in0.0 mm 0.00 in/hr0.0 mm/hr 0.00 in0.0 mm
02:46 AM 47.5°F8.6°C 39.6°F4.2°C 74% Calm Calm -- 29.20 in988.8 mb 0.00 in0.0 mm 0.00 in/hr0.0 mm/hr 0.00 in0.0 mm
02:44 AM 47.6°F8.7°C 39.7°F4.3°C 74% Calm Calm -- 29.21 in989.2 mb 0.00 in0.0 mm 0.00 in/hr0.0 mm/hr 0.00 in0.0 mm
02:42 AM 47.6°F8.7°C 39.4°F4.1°C 73% Calm Calm -- 29.21 in989.2 mb 0.00 in0.0 mm 0.00 in/hr0.0 mm/hr 0.00 in0.0 mm
02:40 AM 47.7°F8.7°C 39.5°F4.2°C 73% Calm Calm -- 29.20 in988.8 mb 0.00 in0.0 mm 0.00 in/hr0.0 mm/hr 0.00 in0.0 mm
02:38 AM 47.7°F8.7°C 39.5°F4.2°C 73% Calm Calm -- 29.21 in989.2 mb 0.00 in0.0 mm 0.00 in/hr0.0 mm/hr 0.00 in0.0 mm
02:36 AM 47.8°F8.8°C 39.6°F4.2°C 73% Calm Calm -- 29.20 in988.8 mb 0.00 in0.0 mm 0.00 in/hr0.0 mm/hr 0.00 in0.0 mm
02:34 AM 47.8°F8.8°C 39.9°F4.4°C 74% Calm Calm -- 29.21 in989.2 mb 0.00 in0.0 mm 0.00 in/hr0.0 mm/hr 0.00 in0.0 mm
02:32 AM 47.8°F8.8°C 39.9°F4.4°C 74% Calm Calm -- 29.21 in989.2 mb 0.00 in0.0 mm 0.00 in/hr0.0 mm/hr 0.00 in0.0 mm
02:30 AM 47.8°F8.8°C 39.9°F4.4°C 74% Calm Calm -- 29.21 in989.2 mb 0.00 in0.0 mm 0.00 in/hr0.0 mm/hr 0.00 in0.0 mm
02:28 AM 47.8°F8.8°C 39.6°F4.2°C 73% Calm Calm -- 29.21 in989.2 mb 0.00 in0.0 mm 0.00 in/hr0.0 mm/hr 0.00 in0.0 mm
02:26 AM 47.9°F8.8°C 39.7°F4.3°C 73% Calm Calm -- 29.21 in989.2 mb 0.00 in0.0 mm 0.00 in/hr0.0 mm/hr 0.00 in0.0 mm
02:24 AM 47.9°F8.8°C 40.0°F4.4°C 74% Calm Calm -- 29.21 in989.2 mb 0.00 in0.0 mm 0.00 in/hr0.0 mm/hr 0.00 in0.0 mm
02:22 AM 48.0°F8.9°C 39.8°F4.3°C 73% Calm Calm -- 29.21 in989.2 mb 0.00 in0.0 mm 0.00 in/hr0.0 mm/hr 0.00 in0.0 mm
02:20 AM 48.0°F8.9°C 39.8°F4.3°C 73% Calm Calm -- 29.21 in989.2 mb 0.00 in0.0 mm 0.00 in/hr0.0 mm/hr 0.00 in0.0 mm
02:18 AM 48.0°F8.9°C 39.8°F4.3°C 73% Calm Calm -- 29.21 in989.2 mb 0.00 in0.0 mm 0.00 in/hr0.0 mm/hr 0.00 in0.0 mm
02:16 AM 48.1°F8.9°C 40.2°F4.6°C 74% Calm Calm -- 29.20 in988.8 mb 0.00 in0.0 mm 0.00 in/hr0.0 mm/hr 0.00 in0.0 mm
02:14 AM 48.1°F8.9°C 40.2°F4.6°C 74% Calm Calm -- 29.21 in989.2 mb 0.00 in0.0 mm 0.00 in/hr0.0 mm/hr 0.00 in0.0 mm
02:12 AM 48.1°F8.9°C 40.2°F4.6°C 74% Calm Calm -- 29.21 in989.2 mb 0.00 in0.0 mm 0.00 in/hr0.0 mm/hr 0.00 in0.0 mm
02:10 AM 48.2°F9.0°C 40.0°F4.4°C 73% Calm Calm -- 29.21 in989.2 mb 0.00 in0.0 mm 0.00 in/hr0.0 mm/hr 0.00 in0.0 mm
02:08 AM 48.2°F9.0°C 40.3°F4.6°C 74% Calm Calm -- 29.21 in989.2 mb 0.00 in0.0 mm 0.00 in/hr0.0 mm/hr 0.00 in0.0 mm
02:06 AM 48.3°F9.1°C 40.4°F4.7°C 74% Calm Calm -- 29.20 in988.8 mb 0.00 in0.0 mm 0.00 in/hr0.0 mm/hr 0.00 in0.0 mm
02:04 AM 48.3°F9.1°C 40.4°F4.7°C 74% Calm Calm -- 29.20 in988.8 mb 0.00 in0.0 mm 0.00 in/hr0.0 mm/hr 0.00 in0.0 mm
02:02 AM 48.3°F9.1°C 40.4°F4.7°C 74% Calm Calm -- 29.20 in988.8 mb 0.00 in0.0 mm 0.00 in/hr0.0 mm/hr 0.00 in0.0 mm
02:00 AM 48.3°F9.1°C 41.1°F5.1°C 76% Calm Calm -- 29.20 in988.8 mb 0.00 in0.0 mm 0.00 in/hr0.0 mm/hr 0.00 in0.0 mm
01:58 AM 48.3°F9.1°C 40.8°F4.9°C 75% Calm Calm -- 29.20 in988.8 mb 0.00 in0.0 mm 0.00 in/hr0.0 mm/hr 0.00 in0.0 mm
01:56 AM 48.3°F9.1°C 40.8°F4.9°C 75% Calm Calm -- 29.20 in988.8 mb 0.00 in0.0 mm 0.00 in/hr0.0 mm/hr 0.00 in0.0 mm
01:54 AM 48.3°F9.1°C 40.4°F4.7°C 74% Calm Calm -- 29.20 in988.8 mb 0.00 in0.0 mm 0.00 in/hr0.0 mm/hr 0.00 in0.0 mm
01:52 AM 48.3°F9.1°C 40.4°F4.7°C 74% Calm Calm -- 29.20 in988.8 mb 0.00 in0.0 mm 0.00 in/hr0.0 mm/hr 0.00 in0.0 mm
01:50 AM 48.3°F9.1°C 40.4°F4.7°C 74% Calm Calm -- 29.20 in988.8 mb 0.00 in0.0 mm 0.00 in/hr0.0 mm/hr 0.00 in0.0 mm
01:48 AM 48.4°F9.1°C 40.5°F4.7°C 74% Calm Calm -- 29.20 in988.8 mb 0.00 in0.0 mm 0.00 in/hr0.0 mm/hr 0.00 in0.0 mm
01:46 AM 48.4°F9.1°C 40.5°F4.7°C 74% Calm Calm -- 29.19 in988.5 mb 0.00 in0.0 mm 0.00 in/hr0.0 mm/hr 0.00 in0.0 mm
01:44 AM 48.4°F9.1°C 40.2°F4.6°C 73% Calm Calm -- 29.20 in988.8 mb 0.00 in0.0 mm 0.00 in/hr0.0 mm/hr 0.00 in0.0 mm
01:42 AM 48.5°F9.2°C 40.3°F4.6°C 73% Calm Calm -- 29.19 in988.5 mb 0.00 in0.0 mm 0.00 in/hr0.0 mm/hr 0.00 in0.0 mm
01:40 AM 48.5°F9.2°C 40.3°F4.6°C 73% Calm Calm -- 29.20 in988.8 mb 0.00 in0.0 mm 0.00 in/hr0.0 mm/hr 0.00 in0.0 mm
01:38 AM 48.5°F9.2°C 40.3°F4.6°C 73% Calm Calm -- 29.20 in988.8 mb 0.00 in0.0 mm 0.00 in/hr0.0 mm/hr 0.00 in0.0 mm
01:36 AM 48.6°F9.2°C 40.7°F4.8°C 74% Calm Calm -- 29.19 in988.5 mb 0.00 in0.0 mm 0.00 in/hr0.0 mm/hr 0.00 in0.0 mm
01:34 AM 48.6°F9.2°C 40.7°F4.8°C 74% Calm Calm -- 29.19 in988.5 mb 0.00 in0.0 mm 0.00 in/hr0.0 mm/hr 0.00 in0.0 mm
01:32 AM 48.6°F9.2°C 40.4°F4.7°C 73% Calm Calm -- 29.19 in988.5 mb 0.00 in0.0 mm 0.00 in/hr0.0 mm/hr 0.00 in0.0 mm
01:30 AM 48.7°F9.3°C 40.8°F4.9°C 74% Calm Calm -- 29.19 in988.5 mb 0.00 in0.0 mm 0.00 in/hr0.0 mm/hr 0.00 in0.0 mm
01:28 AM 48.7°F9.3°C 40.8°F4.9°C 74% Calm Calm -- 29.19 in988.5 mb 0.00 in0.0 mm 0.00 in/hr0.0 mm/hr 0.00 in0.0 mm
01:26 AM 48.7°F9.3°C 40.8°F4.9°C 74% Calm Calm -- 29.19 in988.5 mb 0.00 in0.0 mm 0.00 in/hr0.0 mm/hr 0.00 in0.0 mm
01:24 AM 48.8°F9.3°C 40.9°F4.9°C 74% Calm Calm -- 29.19 in988.5 mb 0.00 in0.0 mm 0.00 in/hr0.0 mm/hr 0.00 in0.0 mm
01:22 AM 48.8°F9.3°C 40.9°F4.9°C 74% Calm Calm -- 29.19 in988.5 mb 0.00 in0.0 mm 0.00 in/hr0.0 mm/hr 0.00 in0.0 mm
01:20 AM 48.8°F9.3°C 40.9°F4.9°C 74% Calm Calm -- 29.19 in988.5 mb 0.00 in0.0 mm 0.00 in/hr0.0 mm/hr 0.00 in0.0 mm
01:18 AM 48.9°F9.4°C 40.6°F4.8°C 73% Calm Calm -- 29.19 in988.5 mb 0.00 in0.0 mm 0.00 in/hr0.0 mm/hr 0.00 in0.0 mm
01:16 AM 48.9°F9.4°C 40.6°F4.8°C 73% Calm Calm -- 29.19 in988.5 mb 0.00 in0.0 mm 0.00 in/hr0.0 mm/hr 0.00 in0.0 mm
01:14 AM 49.0°F9.4°C 40.7°F4.8°C 73% Calm Calm -- 29.19 in988.5 mb 0.00 in0.0 mm 0.00 in/hr0.0 mm/hr 0.00 in0.0 mm
01:12 AM 49.0°F9.4°C 40.7°F4.8°C 73% Calm Calm -- 29.19 in988.5 mb 0.00 in0.0 mm 0.00 in/hr0.0 mm/hr 0.00 in0.0 mm
01:10 AM 49.0°F9.4°C 40.7°F4.8°C 73% Calm Calm -- 29.19 in988.5 mb 0.00 in0.0 mm 0.00 in/hr0.0 mm/hr 0.00 in0.0 mm
01:08 AM 49.1°F9.5°C 41.2°F5.1°C 74% Calm Calm -- 29.19 in988.5 mb 0.00 in0.0 mm 0.00 in/hr0.0 mm/hr 0.00 in0.0 mm
01:06 AM 49.1°F9.5°C 41.2°F5.1°C 74% Calm Calm -- 29.20 in988.8 mb 0.00 in0.0 mm 0.00 in/hr0.0 mm/hr 0.00 in0.0 mm
01:04 AM 49.1°F9.5°C 41.2°F5.1°C 74% Calm Calm -- 29.20 in988.8 mb 0.00 in0.0 mm 0.00 in/hr0.0 mm/hr 0.00 in0.0 mm
01:02 AM 49.1°F9.5°C 41.5°F5.3°C 75% Calm Calm -- 29.19 in988.5 mb 0.00 in0.0 mm 0.00 in/hr0.0 mm/hr 0.00 in0.0 mm
01:00 AM 49.1°F9.5°C 41.2°F5.1°C 74% Calm Calm -- 29.20 in988.8 mb 0.00 in0.0 mm 0.00 in/hr0.0 mm/hr 0.00 in0.0 mm
12:58 AM 49.1°F9.5°C 41.5°F5.3°C 75% Calm Calm -- 29.19 in988.5 mb 0.00 in0.0 mm 0.00 in/hr0.0 mm/hr 0.00 in0.0 mm
12:56 AM 49.1°F9.5°C 41.2°F5.1°C 74% Calm Calm -- 29.19 in988.5 mb 0.00 in0.0 mm 0.00 in/hr0.0 mm/hr 0.00 in0.0 mm
12:54 AM 49.1°F9.5°C 41.2°F5.1°C 74% Calm Calm -- 29.20 in988.8 mb 0.00 in0.0 mm 0.00 in/hr0.0 mm/hr 0.00 in0.0 mm
12:52 AM 49.1°F9.5°C 40.8°F4.9°C 73% Calm Calm -- 29.19 in988.5 mb 0.00 in0.0 mm 0.00 in/hr0.0 mm/hr 0.00 in0.0 mm
12:50 AM 49.1°F9.5°C 41.2°F5.1°C 74% Calm Calm -- 29.20 in988.8 mb 0.00 in0.0 mm 0.00 in/hr0.0 mm/hr 0.00 in0.0 mm
12:48 AM 49.1°F9.5°C 40.8°F4.9°C 73% Calm Calm -- 29.20 in988.8 mb 0.00 in0.0 mm 0.00 in/hr0.0 mm/hr 0.00 in0.0 mm
12:46 AM 49.1°F9.5°C 40.8°F4.9°C 73% Calm Calm -- 29.20 in988.8 mb 0.00 in0.0 mm 0.00 in/hr0.0 mm/hr 0.00 in0.0 mm
12:44 AM 49.2°F9.6°C 40.9°F4.9°C 73% Calm Calm -- 29.19 in988.5 mb 0.00 in0.0 mm 0.00 in/hr0.0 mm/hr 0.00 in0.0 mm
12:42 AM 49.2°F9.6°C 40.9°F4.9°C 73% Calm Calm -- 29.19 in988.5 mb 0.00 in0.0 mm 0.00 in/hr0.0 mm/hr 0.00 in0.0 mm
12:40 AM 49.2°F9.6°C 40.9°F4.9°C 73% Calm Calm -- 29.19 in988.5 mb 0.00 in0.0 mm 0.00 in/hr0.0 mm/hr 0.00 in0.0 mm
12:38 AM 49.3°F9.6°C 41.0°F5.0°C 73% Calm Calm -- 29.19 in988.5 mb 0.00 in0.0 mm 0.00 in/hr0.0 mm/hr 0.00 in0.0 mm
12:36 AM 49.3°F9.6°C 41.0°F5.0°C 73% Calm Calm -- 29.19 in988.5 mb 0.00 in0.0 mm 0.00 in/hr0.0 mm/hr 0.00 in0.0 mm
12:34 AM 49.4°F9.7°C 41.1°F5.1°C 73% Calm Calm -- 29.19 in988.5 mb 0.00 in0.0 mm 0.00 in/hr0.0 mm/hr 0.00 in0.0 mm
12:32 AM 49.4°F9.7°C 41.1°F5.1°C 73% Calm Calm -- 29.19 in988.5 mb 0.00 in0.0 mm 0.00 in/hr0.0 mm/hr 0.00 in0.0 mm
12:30 AM 49.4°F9.7°C 41.1°F5.1°C 73% Calm Calm -- 29.19 in988.5 mb 0.00 in0.0 mm 0.00 in/hr0.0 mm/hr 0.00 in0.0 mm
12:28 AM 49.4°F9.7°C 41.1°F5.1°C 73% Calm Calm -- 29.19 in988.5 mb 0.00 in0.0 mm 0.00 in/hr0.0 mm/hr 0.00 in0.0 mm
12:26 AM 49.4°F9.7°C 41.1°F5.1°C 73% Calm Calm -- 29.19 in988.5 mb 0.00 in0.0 mm 0.00 in/hr0.0 mm/hr 0.00 in0.0 mm
12:24 AM 49.5°F9.7°C 41.2°F5.1°C 73% Calm Calm -- 29.19 in988.5 mb 0.00 in0.0 mm 0.00 in/hr0.0 mm/hr 0.00 in0.0 mm
12:22 AM 49.5°F9.7°C 41.2°F5.1°C 73% Calm Calm -- 29.20 in988.8 mb 0.00 in0.0 mm 0.00 in/hr0.0 mm/hr 0.00 in0.0 mm
12:20 AM 49.5°F9.7°C 41.2°F5.1°C 73% Calm Calm -- 29.19 in988.5 mb 0.00 in0.0 mm 0.00 in/hr0.0 mm/hr 0.00 in0.0 mm
12:18 AM 49.6°F9.8°C 41.3°F5.2°C 73% Calm Calm -- 29.19 in988.5 mb 0.00 in0.0 mm 0.00 in/hr0.0 mm/hr 0.00 in0.0 mm
12:16 AM 49.6°F9.8°C 41.3°F5.2°C 73% Calm Calm -- 29.19 in988.5 mb 0.00 in0.0 mm 0.00 in/hr0.0 mm/hr 0.00 in0.0 mm
12:14 AM 49.6°F9.8°C 41.3°F5.2°C 73% Calm Calm -- 29.19 in988.5 mb 0.00 in0.0 mm 0.00 in/hr0.0 mm/hr 0.00 in0.0 mm
12:12 AM 49.7°F9.8°C 41.4°F5.2°C 73% Calm Calm -- 29.19 in988.5 mb 0.00 in0.0 mm 0.00 in/hr0.0 mm/hr 0.00 in0.0 mm
12:10 AM 49.7°F9.8°C 41.1°F5.1°C 72% Calm Calm -- 29.19 in988.5 mb 0.00 in0.0 mm 0.00 in/hr0.0 mm/hr 0.00 in0.0 mm
12:08 AM 49.8°F9.9°C 41.5°F5.3°C 73% Calm Calm -- 29.19 in988.5 mb 0.00 in0.0 mm 0.00 in/hr0.0 mm/hr 0.00 in0.0 mm
12:06 AM 49.9°F9.9°C 41.6°F5.3°C 73% Calm Calm -- 29.19 in988.5 mb 0.00 in0.0 mm 0.00 in/hr0.0 mm/hr 0.00 in0.0 mm
12:04 AM 49.9°F9.9°C 41.6°F5.3°C 73% Calm Calm -- 29.19 in988.5 mb 0.00 in0.0 mm 0.00 in/hr0.0 mm/hr 0.00 in0.0 mm
12:02 AM 50.0°F10.0°C 41.3°F5.2°C 72% Calm Calm -- 29.19 in988.5 mb 0.00 in0.0 mm 0.00 in/hr0.0 mm/hr 0.00 in0.0 mm
12:00 AM 50.0°F10.0°C 41.3°F5.2°C 72% Calm Calm -- 29.19 in988.5 mb 0.00 in0.0 mm 0.00 in/hr0.0 mm/hr 0.00 in0.0 mm
WeatherForYou.com, LLC is not responsible for any damages or problems caused by this service. Current weather conditions are obtained from the closest station including government and personal stations which may have varying degrees of accuracy. Weather forecasts are derived from the NOAA NDFD and obtained through HAMweather's Aeris Weather API. Like all things, this site belongs to Jesus Christ... He just trusts me to maintain it. If you have any questions or comments email webmaster@weatherforyou.com

Copyright © 2014, WeatherForYou.com LLC. All rights reserved.